Blue Grass, North Dakota
Current Conditions -  °F | °C
As of 7:35 PM on Sunday 23 Nov 2014 (Local Time) from KD57 Reporting Station
Overcast Overcast  
Wind Chill:   Ceiling: 2700
Heat Index: 21°   Visibility: 10mi
Dew Point: 12°   Wind: 23mph
Humidity: 68%   Direction: 310°NW
Pressure: 29.7"   Gusts: 36mph
Location:  46.861°N, 101.466°W
Report Text: KD57 240135Z AUTO 31020G31KT 10SM BKN027 OVC049 M06/M11 A2970 RMK AO2 TSNO
Loading
Personal Weather Stations






























Interactive Weather Map New forecast layout! Learn more

10-Day Weather Forecast

Advertisements
Track Severe Weather on mobile